Time;durP1;ratioP1;P1;durP2;ratioP2;P2;SDS_P1;SDS_P2;PMS_P1;PMS_P2;Temp;Humidity;BMP_temperature;BMP_pressure;BME280_temperature;BME280_humidity;BME280_pressure;Samples;Min_cycle;Max_cycle;Signal;HPM_P1;HPM_P2
2022/08/27 07:22:03;;;;;;;7.35;4.60;;;;;;;;;;6067779;23;20073;-76
2022/08/27 07:24:29;;;;;;;5.45;4.50;;;;;;;;;;6068223;23;20308;-80
2022/08/27 07:26:54;;;;;;;6.60;4.78;;;;;;;;;;6068192;23;20078;-79
2022/08/27 07:29:20;;;;;;;6.95;6.05;;;;;;;;;;6068035;23;20062;-76
2022/08/27 07:31:45;;;;;;;7.63;5.75;;;;;;;;;;6114871;23;20082;-80
2022/08/27 07:34:11;;;;;;;5.30;4.65;;;;;;;;;;6068060;23;20434;-78
2022/08/27 07:36:37;;;;;;;8.98;5.32;;;;;;;;;;6067910;23;20058;-79
2022/08/27 07:39:03;;;;;;;6.85;5.70;;;;;;;;;;6068029;23;20007;-76
2022/08/27 07:41:30;;;;;;;7.88;5.30;;;;;;;;;;6068111;23;20003;-77
2022/08/27 07:46:39;;;;;;;7.05;5.50;;;;;;;;;;6068139;23;20335;-76
2022/08/27 07:49:05;;;;;;;7.45;5.28;;;;;;;;;;6068200;23;20085;-78
2022/08/27 07:51:31;;;;;;;6.15;5.22;;;;;;;;;;6067722;23;20082;-77
2022/08/27 07:53:57;;;;;;;7.95;5.47;;;;;;;;;;6067832;23;20058;-76
2022/08/27 07:56:22;;;;;;;8.27;4.75;;;;;;;;;;6068186;23;20011;-77
2022/08/27 07:58:48;;;;;;;6.68;5.65;;;;;;;;;;6067717;23;20422;-80
2022/08/27 08:01:14;;;;;;;6.60;4.85;;;;;;;;;;6067979;23;20010;-75
2022/08/27 08:03:40;;;;;;;9.07;5.32;;;;;;;;;;6067814;23;20022;-80
2022/08/27 08:06:09;;;;;;;6.55;4.95;;;;;;;;;;6068136;23;20330;-78
2022/08/27 08:08:35;;;;;;;6.30;4.95;;;;;;;;;;6069974;23;20490;-77
2022/08/27 08:11:02;;;;;;;5.55;4.78;;;;;;;;;;6069666;23;20326;-79
2022/08/27 08:13:29;;;;;;;5.30;4.80;;;;;;;;;;6069916;23;20010;-77
2022/08/27 08:15:55;;;;;;;5.82;4.80;;;;;;;;;;6069888;23;20010;-78
2022/08/27 08:18:21;;;;;;;6.70;4.72;;;;;;;;;;6069660;23;20006;-77
2022/08/27 08:20:46;;;;;;;6.22;4.57;;;;;;;;;;6086890;23;20325;-77
2022/08/27 08:23:12;;;;;;;6.93;4.88;;;;;;;;;;6098317;23;20067;-78
2022/08/27 08:25:37;;;;;;;5.78;4.22;;;;;;;;;;6098453;23;20006;-78
2022/08/27 08:28:03;;;;;;;5.63;4.47;;;;;;;;;;6098148;23;20063;-77
2022/08/27 08:30:28;;;;;;;5.50;4.15;;;;;;;;;;6098818;23;20062;-79
2022/08/27 08:32:54;;;;;;;9.15;3.67;;;;;;;;;;6098582;23;20078;-77
2022/08/27 08:35:19;;;;;;;5.35;4.10;;;;;;;;;;6098518;23;20013;-79
2022/08/27 08:37:45;;;;;;;5.00;4.03;;;;;;;;;;6098392;23;20069;-77
2022/08/27 08:40:27;;;;;;;5.28;4.20;;;;;;;;;;6098255;23;20006;-78
2022/08/27 08:42:55;;;;;;;4.28;3.22;;;;;;;;;;6098539;23;20002;-77
2022/08/27 08:45:26;;;;;;;3.88;3.40;;;;;;;;;;6098271;23;20333;-79
2022/08/27 08:48:05;;;;;;;5.60;4.10;;;;;;;;;;6098711;23;20007;-79
2022/08/27 08:51:13;;;;;;;4.72;4.30;;;;;;;;;;6098520;23;20453;-80
2022/08/27 08:53:51;;;;;;;4.70;4.10;;;;;;;;;;6009624;23;20007;-77
2022/08/27 08:56:23;;;;;;;6.93;4.60;;;;;;;;;;6009980;23;20012;-77
2022/08/27 08:59:09;;;;;;;4.97;4.07;;;;;;;;;;6009572;23;20091;-78
2022/08/27 09:01:35;;;;;;;5.18;4.10;;;;;;;;;;6009815;23;20016;-78
2022/08/27 09:04:04;;;;;;;6.20;5.60;;;;;;;;;;6009548;23;20338;-78
2022/08/27 09:06:32;;;;;;;6.75;5.18;;;;;;;;;;6009908;23;20091;-77
2022/08/27 09:09:05;;;;;;;7.32;4.32;;;;;;;;;;6009794;23;20015;-77
2022/08/27 09:11:38;;;;;;;4.82;4.05;;;;;;;;;;6009765;23;20016;-77
2022/08/27 09:14:20;;;;;;;4.80;4.30;;;;;;;;;;6009277;23;20400;-78
2022/08/27 09:16:45;;;;;;;7.53;4.57;;;;;;;;;;6009251;23;20090;-77
2022/08/27 09:19:11;;;;;;;5.55;4.60;;;;;;;;;;6009472;23;20058;-79
2022/08/27 09:22:03;;;;;;;5.32;4.10;;;;;;;;;;6009541;23;20080;-78
2022/08/27 09:24:54;;;;;;;4.40;4.00;;;;;;;;;;6033775;23;20038;-78
2022/08/27 09:27:20;;;;;;;5.25;4.30;;;;;;;;;;6097708;23;20079;-79
2022/08/27 09:29:54;;;;;;;3.85;3.50;;;;;;;;;;6098070;23;20334;-79
2022/08/27 09:32:31;;;;;;;4.45;4.00;;;;;;;;;;6097629;23;20009;-78
2022/08/27 09:35:00;;;;;;;6.30;4.30;;;;;;;;;;6097552;23;20072;-79
2022/08/27 09:37:32;;;;;;;3.97;3.60;;;;;;;;;;6097688;23;20013;-79
2022/08/27 09:40:10;;;;;;;6.03;4.15;;;;;;;;;;6097596;23;20042;-78
2022/08/27 09:42:43;;;;;;;4.43;3.42;;;;;;;;;;6097799;23;20034;-79
2022/08/27 09:45:15;;;;;;;4.22;3.83;;;;;;;;;;6097498;23;20017;-79
2022/08/27 09:47:45;;;;;;;4.20;3.35;;;;;;;;;;6097812;23;20010;-78
2022/08/27 09:50:11;;;;;;;4.57;3.40;;;;;;;;;;6097498;23;20371;-78
2022/08/27 09:52:55;;;;;;;3.60;2.92;;;;;;;;;;6097511;23;20002;-79
2022/08/27 09:55:42;;;;;;;3.80;3.50;;;;;;;;;;6097399;23;20002;-78
2022/08/27 09:58:17;;;;;;;4.28;3.20;;;;;;;;;;6097604;23;20006;-81
2022/08/27 10:00:42;;;;;;;4.30;3.63;;;;;;;;;;6098024;23;20082;-85
2022/08/27 10:03:10;;;;;;;3.55;3.17;;;;;;;;;;6096071;23;20061;-88
2022/08/27 10:05:49;;;;;;;7.10;4.10;;;;;;;;;;6120350;23;20069;-86
2022/08/27 10:08:37;;;;;;;6.43;3.80;;;;;;;;;;6097298;23;20402;-88
2022/08/27 10:11:18;;;;;;;4.10;3.50;;;;;;;;;;6120439;23;20010;-91
2022/08/27 10:14:04;;;;;;;5.40;3.53;;;;;;;;;;6097529;23;20006;-88
2022/08/27 10:16:30;;;;;;;4.88;3.50;;;;;;;;;;6097349;23;20006;-81
2022/08/27 10:19:07;;;;;;;4.00;3.55;;;;;;;;;;6097197;23;20017;-84
2022/08/27 10:21:46;;;;;;;3.83;3.42;;;;;;;;;;6097528;23;20097;-83
2022/08/27 10:24:40;;;;;;;6.30;3.78;;;;;;;;;;6097084;23;20002;-83
2022/08/27 10:27:41;;;;;;;4.13;2.90;;;;;;;;;;6097086;23;20093;-83
2022/08/27 10:30:06;;;;;;;3.92;2.72;;;;;;;;;;6071590;23;20002;-85
2022/08/27 10:32:50;;;;;;;4.25;3.05;;;;;;;;;;6097490;23;20009;-84
2022/08/27 10:35:41;;;;;;;3.22;2.92;;;;;;;;;;6096952;23;20006;-83
2022/08/27 10:38:18;;;;;;;4.82;3.92;;;;;;;;;;6096267;23;20017;-85
2022/08/27 10:41:16;;;;;;;6.00;3.50;;;;;;;;;;6097951;23;20375;-86
2022/08/27 10:43:59;;;;;;;4.25;2.83;;;;;;;;;;6096509;23;20061;-84
2022/08/27 10:46:41;;;;;;;3.95;3.50;;;;;;;;;;6096904;23;20010;-81
2022/08/27 10:49:23;;;;;;;3.38;3.00;;;;;;;;;;6097364;23;20007;-81
2022/08/27 10:52:15;;;;;;;3.35;3.00;;;;;;;;;;6096869;23;20077;-86
2022/08/27 10:55:01;;;;;;;3.28;2.90;;;;;;;;;;6097258;23;20013;-82
2022/08/27 10:57:52;;;;;;;2.88;2.58;;;;;;;;;;6096508;23;20018;-82
2022/08/27 11:00:20;;;;;;;2.75;2.35;;;;;;;;;;6097109;23;20010;-81
2022/08/27 11:02:53;;;;;;;2.58;2.35;;;;;;;;;;6097342;23;20003;-81
2022/08/27 11:05:41;;;;;;;3.60;3.10;;;;;;;;;;6097167;23;20032;-82
2022/08/27 11:08:32;;;;;;;4.13;3.22;;;;;;;;;;6097279;23;20007;-82
2022/08/27 11:11:04;;;;;;;5.18;4.30;;;;;;;;;;6077333;23;20017;-87
2022/08/27 11:13:31;;;;;;;4.60;4.00;;;;;;;;;;6120673;23;20006;-83
2022/08/27 11:16:01;;;;;;;4.55;3.92;;;;;;;;;;6097734;23;20508;-86
2022/08/27 11:18:41;;;;;;;4.07;3.67;;;;;;;;;;6097186;23;20003;-85
2022/08/27 11:21:26;;;;;;;3.92;3.45;;;;;;;;;;6096989;23;20028;-85
2022/08/27 11:24:01;;;;;;;4.32;3.22;;;;;;;;;;6097204;23;20006;-85
2022/08/27 11:26:30;;;;;;;5.57;3.28;;;;;;;;;;6095689;23;20033;-84
2022/08/27 11:28:58;;;;;;;;;;;;;;;;;;6097758;23;20045;-85
2022/08/27 11:31:49;;;;;;;3.63;3.03;;;;;;;;;;6097244;23;19905;-80
2022/08/27 11:34:15;;;;;;;2.92;2.47;;;;;;;;;;6096254;23;20011;-76
2022/08/27 11:36:58;;;;;;;6.45;3.05;;;;;;;;;;6097130;23;20430;-83
2022/08/27 11:39:43;;;;;;;4.13;2.83;;;;;;;;;;6097780;23;20437;-80
2022/08/27 11:42:21;;;;;;;3.53;2.97;;;;;;;;;;6099190;23;20419;-79
2022/08/27 11:44:52;;;;;;;3.35;2.80;;;;;;;;;;6099059;23;20006;-81
2022/08/27 11:47:22;;;;;;;2.90;2.60;;;;;;;;;;6098501;23;20094;-78
2022/08/27 11:50:15;;;;;;;3.67;3.05;;;;;;;;;;6097012;23;20010;-80
2022/08/27 11:52:55;;;;;;;4.22;2.90;;;;;;;;;;6098417;23;20465;-81
2022/08/27 11:55:21;;;;;;;3.97;2.80;;;;;;;;;;6098669;23;20052;-81
2022/08/27 11:57:49;;;;;;;4.05;3.13;;;;;;;;;;6098672;23;20312;-80
2022/08/27 12:00:26;;;;;;;7.63;3.13;;;;;;;;;;6099067;23;20480;-82
2022/08/27 12:03:21;;;;;;;3.72;2.85;;;;;;;;;;6099367;23;20074;-82
2022/08/27 12:05:52;;;;;;;3.40;3.10;;;;;;;;;;6099353;23;20037;-81
2022/08/27 12:08:20;;;;;;;3.40;3.10;;;;;;;;;;6122240;23;20489;-81
2022/08/27 12:11:07;;;;;;;5.07;3.87;;;;;;;;;;6099483;23;20006;-81
2022/08/27 12:14:11;;;;;;;6.40;2.92;;;;;;;;;;6099637;23;20010;-82
2022/08/27 12:16:45;;;;;;;6.85;3.17;;;;;;;;;;6099756;23;20010;-82
2022/08/27 12:19:11;;;;;;;4.43;3.40;;;;;;;;;;6098875;23;20006;-81
2022/08/27 12:21:55;;;;;;;3.78;2.92;;;;;;;;;;6099184;23;20024;-81
2022/08/27 12:24:41;;;;;;;4.75;3.50;;;;;;;;;;6122481;23;20013;-81
2022/08/27 12:27:25;;;;;;;6.35;3.42;;;;;;;;;;6099777;23;20006;-81
2022/08/27 12:29:59;;;;;;;4.03;3.03;;;;;;;;;;6099208;23;20013;-81
2022/08/27 12:32:38;;;;;;;4.35;2.97;;;;;;;;;;6099384;23;20002;-81
2022/08/27 12:35:15;;;;;;;3.40;3.10;;;;;;;;;;6098974;23;20055;-81
2022/08/27 12:37:48;;;;;;;4.07;2.90;;;;;;;;;;6097612;23;20090;-81
2022/08/27 12:40:29;;;;;;;3.75;3.45;;;;;;;;;;6098813;23;20081;-80
2022/08/27 12:43:16;;;;;;;5.63;4.90;;;;;;;;;;6121340;23;20017;-82
2022/08/27 12:46:05;;;;;;;5.90;3.60;;;;;;;;;;6098675;23;20005;-81
2022/08/27 12:48:46;;;;;;;4.40;3.45;;;;;;;;;;6098413;23;20062;-81
2022/08/27 12:51:23;;;;;;;4.40;3.78;;;;;;;;;;6097713;23;20009;-81
2022/08/27 12:54:05;;;;;;;5.22;3.58;;;;;;;;;;6098012;23;20061;-81
2022/08/27 12:56:44;;;;;;;3.92;3.00;;;;;;;;;;6098712;23;20002;-81
2022/08/27 12:59:34;;;;;;;6.07;3.38;;;;;;;;;;6097973;23;20029;-81
2022/08/27 13:02:18;;;;;;;3.63;3.33;;;;;;;;;;6098199;23;20469;-81
2022/08/27 13:04:46;;;;;;;4.82;3.20;;;;;;;;;;6097988;23;20375;-80
2022/08/27 13:07:13;;;;;;;5.97;3.70;;;;;;;;;;6096396;23;20326;-81
2022/08/27 13:09:38;;;;;;;3.45;3.15;;;;;;;;;;6098325;23;20023;-80
2022/08/27 13:12:16;;;;;;;4.80;3.72;;;;;;;;;;6098170;23;20009;-81
2022/08/27 13:14:41;;;;;;;3.60;3.30;;;;;;;;;;6098421;23;20007;-80
2022/08/27 13:17:15;;;;;;;4.10;3.70;;;;;;;;;;6097950;23;20009;-80
2022/08/27 13:19:54;;;;;;;4.28;3.38;;;;;;;;;;6098090;23;20096;-86
2022/08/27 13:22:30;;;;;;;;;;;;;;;;;;6103543;23;20446;-87
2022/08/27 13:24:58;;;;;;;4.75;3.33;;;;;;;;;;6105194;23;19910;-85
2022/08/27 13:27:29;;;;;;;4.47;3.53;;;;;;;;;;6104375;23;19999;-80
2022/08/27 13:30:08;;;;;;;3.90;3.15;;;;;;;;;;6101302;23;20141;-80
2022/08/27 13:32:36;;;;;;;5.82;3.10;;;;;;;;;;6098123;23;20465;-80
2022/08/27 13:35:01;;;;;;;3.50;3.20;;;;;;;;;;6098014;23;20013;-83
2022/08/27 13:37:33;;;;;;;6.15;3.47;;;;;;;;;;6098459;23;20014;-86
2022/08/27 13:39:59;;;;;;;4.68;3.40;;;;;;;;;;6098303;23;20081;-82
2022/08/27 13:42:26;;;;;;;3.65;3.35;;;;;;;;;;6097964;23;20036;-82
2022/08/27 13:44:59;;;;;;;5.30;3.10;;;;;;;;;;6097930;23;20002;-81
2022/08/27 13:47:27;;;;;;;4.15;3.75;;;;;;;;;;6120935;23;20011;-82
2022/08/27 16:26:48;;;;;;;6.80;5.68;;;;;;;;;;6153374;23;20356;-84
2022/08/27 16:29:14;;;;;;;6.75;5.65;;;;;;;;;;6186614;23;20009;-78
2022/08/27 16:31:40;;;;;;;5.97;5.38;;;;;;;;;;6161023;23;20432;-81
2022/08/27 16:34:15;;;;;;;6.10;5.20;;;;;;;;;;6178566;23;20056;-84
2022/08/27 16:36:41;;;;;;;5.93;5.03;;;;;;;;;;6157867;23;20333;-85
2022/08/27 16:39:07;;;;;;;5.00;4.57;;;;;;;;;;6157423;23;20005;-78
2022/08/27 16:41:32;;;;;;;5.47;4.97;;;;;;;;;;6157616;23;19998;-78
2022/08/27 16:43:58;;;;;;;6.00;4.72;;;;;;;;;;6157268;23;20005;-77
2022/08/27 16:46:23;;;;;;;5.47;4.80;;;;;;;;;;6156563;23;20005;-78
2022/08/27 16:51:34;;;;;;;5.50;5.00;;;;;;;;;;6156676;23;20451;-81
2022/08/27 16:54:01;;;;;;;5.20;4.38;;;;;;;;;;6159404;23;20020;-84
2022/08/27 16:56:26;;;;;;;5.18;4.68;;;;;;;;;;6157108;23;20389;-82
2022/08/27 16:58:52;;;;;;;4.63;4.22;;;;;;;;;;6157196;23;20009;-81
2022/08/27 17:01:20;;;;;;;5.28;4.78;;;;;;;;;;6131000;23;20092;-83
2022/08/27 17:03:51;;;;;;;5.10;4.53;;;;;;;;;;6156738;23;20002;-84
2022/08/27 17:06:17;;;;;;;6.90;5.15;;;;;;;;;;6156973;23;20013;-81
2022/08/27 17:08:44;;;;;;;6.10;5.50;;;;;;;;;;6155419;23;20025;-79
2022/08/27 17:11:16;;;;;;;5.95;5.28;;;;;;;;;;6157209;23;20008;-80
2022/08/27 17:13:42;;;;;;;5.72;4.93;;;;;;;;;;6156884;23;20009;-81
2022/08/27 17:16:08;;;;;;;8.80;5.20;;;;;;;;;;6157207;23;20008;-81
2022/08/27 17:18:34;;;;;;;4.82;4.43;;;;;;;;;;6157083;23;20116;-81
2022/08/27 17:21:01;;;;;;;5.22;4.72;;;;;;;;;;6156915;23;20028;-82
2022/08/27 17:23:32;;;;;;;5.20;4.75;;;;;;;;;;6156859;23;20012;-81
2022/08/27 17:25:57;;;;;;;5.30;4.80;;;;;;;;;;6156912;23;20002;-81
2022/08/27 17:28:23;;;;;;;6.15;5.03;;;;;;;;;;6156811;23;20020;-81
2022/08/27 17:30:49;;;;;;;6.05;4.80;;;;;;;;;;6156999;23;20085;-82
2022/08/27 17:33:39;;;;;;;6.40;5.80;;;;;;;;;;6157129;23;20110;-82
2022/08/27 17:36:06;;;;;;;6.85;4.80;;;;;;;;;;6144938;23;20187;-81
2022/08/27 17:38:32;;;;;;;8.00;5.43;;;;;;;;;;6156510;23;20002;-81
2022/08/27 17:41:01;;;;;;;8.35;5.18;;;;;;;;;;6156751;23;20002;-81
2022/08/27 17:43:27;;;;;;;5.97;5.38;;;;;;;;;;6156840;23;20008;-82
2022/08/27 17:45:52;;;;;;;6.03;5.38;;;;;;;;;;6156628;23;20006;-82
2022/08/27 17:48:19;;;;;;;5.50;4.63;;;;;;;;;;6156674;23;20005;-80
2022/08/27 17:50:46;;;;;;;5.90;5.30;;;;;;;;;;6156945;23;20059;-80
2022/08/27 17:53:12;;;;;;;6.07;5.47;;;;;;;;;;6154976;23;20060;-83
2022/08/27 17:55:37;;;;;;;8.25;4.93;;;;;;;;;;6156407;23;20101;-78
2022/08/27 17:58:03;;;;;;;6.25;4.90;;;;;;;;;;6156667;23;20374;-81
2022/08/27 18:00:29;;;;;;;5.00;4.60;;;;;;;;;;6156476;23;20017;-82
2022/08/27 18:02:54;;;;;;;5.80;4.53;;;;;;;;;;6156770;23;20009;-81
2022/08/27 18:05:22;;;;;;;5.68;4.45;;;;;;;;;;6156467;23;20012;-81
2022/08/27 18:07:47;;;;;;;6.25;4.57;;;;;;;;;;6130201;23;20310;-82
2022/08/27 18:10:18;;;;;;;7.13;4.30;;;;;;;;;;6156427;23;20016;-79
2022/08/27 18:12:44;;;;;;;5.10;4.60;;;;;;;;;;6156799;23;20002;-81
2022/08/27 18:15:30;;;;;;;5.95;4.40;;;;;;;;;;6156215;23;20005;-80
2022/08/27 18:17:56;;;;;;;6.80;4.38;;;;;;;;;;6156310;23;20005;-81
2022/08/27 18:20:24;;;;;;;8.43;5.63;;;;;;;;;;6156579;23;20084;-82
2022/08/27 18:22:50;;;;;;;6.35;5.00;;;;;;;;;;6156548;23;20420;-80
2022/08/27 18:25:18;;;;;;;5.90;5.30;;;;;;;;;;6156180;23;20073;-80
2022/08/27 18:27:44;;;;;;;5.00;4.60;;;;;;;;;;6155961;23;20014;-80
2022/08/27 18:30:11;;;;;;;5.15;4.63;;;;;;;;;;6156299;23;20075;-81
2022/08/27 18:32:37;;;;;;;5.97;5.10;;;;;;;;;;6156248;23;20443;-80
2022/08/27 18:35:17;;;;;;;6.30;5.30;;;;;;;;;;6156206;23;20001;-79
2022/08/27 18:37:43;;;;;;;6.32;4.97;;;;;;;;;;6156277;23;20001;-78
2022/08/27 18:40:10;;;;;;;7.00;5.75;;;;;;;;;;6156252;23;20401;-78
2022/08/27 18:42:36;;;;;;;5.75;5.10;;;;;;;;;;6156180;23;20381;-78
2022/08/27 18:45:06;;;;;;;6.22;4.78;;;;;;;;;;6154403;23;20366;-78
2022/08/27 18:47:32;;;;;;;5.20;4.20;;;;;;;;;;6155962;23;20001;-81
2022/08/27 18:49:57;;;;;;;5.15;4.28;;;;;;;;;;6129824;23;20009;-78
2022/08/27 18:52:23;;;;;;;5.63;4.50;;;;;;;;;;6155889;23;20012;-78
2022/08/27 18:54:49;;;;;;;7.75;4.53;;;;;;;;;;6155920;23;20476;-82
2022/08/27 18:57:14;;;;;;;6.22;5.43;;;;;;;;;;6156322;23;20005;-78
2022/08/27 18:59:40;;;;;;;5.45;4.70;;;;;;;;;;6156047;23;20429;-78
2022/08/27 19:02:06;;;;;;;5.93;4.63;;;;;;;;;;6155969;23;20002;-79
2022/08/27 19:04:33;;;;;;;7.00;4.50;;;;;;;;;;6156190;23;20418;-77
2022/08/27 19:06:58;;;;;;;6.43;4.13;;;;;;;;;;6156165;23;20002;-78
2022/08/27 19:09:25;;;;;;;8.40;6.47;;;;;;;;;;6155909;23;20036;-78
2022/08/27 19:11:50;;;;;;;7.10;5.40;;;;;;;;;;6156069;23;20052;-79
2022/08/27 19:14:16;;;;;;;5.18;4.07;;;;;;;;;;6156445;23;20421;-78
2022/08/27 19:16:45;;;;;;;4.65;4.20;;;;;;;;;;6156199;23;20022;-78
2022/08/27 19:19:13;;;;;;;6.68;3.75;;;;;;;;;;6156221;23;20002;-78
2022/08/27 19:21:39;;;;;;;5.25;4.07;;;;;;;;;;6156319;23;20005;-78
2022/08/27 19:24:05;;;;;;;4.45;3.90;;;;;;;;;;6156077;23;19997;-78
2022/08/27 19:26:31;;;;;;;5.47;4.20;;;;;;;;;;6130591;23;20418;-79
2022/08/27 19:28:57;;;;;;;5.10;4.45;;;;;;;;;;6156013;23;20060;-78
2022/08/27 19:31:23;;;;;;;4.88;4.35;;;;;;;;;;6156128;23;20002;-80
2022/08/27 19:33:48;;;;;;;4.97;4.53;;;;;;;;;;6156197;23;20089;-78
2022/08/27 19:36:16;;;;;;;5.55;3.92;;;;;;;;;;6156126;23;20008;-79
2022/08/27 19:38:43;;;;;;;6.53;4.13;;;;;;;;;;6155945;23;20017;-78
2022/08/27 19:41:09;;;;;;;4.90;4.40;;;;;;;;;;6156604;23;20005;-78
2022/08/27 19:43:36;;;;;;;4.07;3.67;;;;;;;;;;6156290;23;20016;-79
2022/08/27 19:46:03;;;;;;;5.45;4.32;;;;;;;;;;6156101;23;20085;-79
2022/08/27 19:48:29;;;;;;;4.45;4.05;;;;;;;;;;6156348;23;20325;-78
2022/08/27 19:50:55;;;;;;;5.78;4.22;;;;;;;;;;6156251;23;20036;-78
2022/08/27 19:53:21;;;;;;;6.18;4.20;;;;;;;;;;6157157;23;20006;-82
2022/08/27 19:55:47;;;;;;;5.82;4.55;;;;;;;;;;6155008;23;20012;-85
2022/08/27 19:58:14;;;;;;;6.43;4.82;;;;;;;;;;6158059;23;20077;-83
2022/08/27 20:00:41;;;;;;;5.85;4.60;;;;;;;;;;6156486;23;20010;-78
2022/08/27 20:03:06;;;;;;;5.85;4.38;;;;;;;;;;6157951;23;20002;-81
2022/08/27 20:05:32;;;;;;;6.40;4.65;;;;;;;;;;6157691;23;20310;-78
2022/08/27 20:07:57;;;;;;;5.65;4.70;;;;;;;;;;6157875;23;20077;-80
2022/08/27 20:10:26;;;;;;;5.55;4.97;;;;;;;;;;6158291;23;20002;-81
2022/08/27 20:12:52;;;;;;;5.68;4.55;;;;;;;;;;6158017;23;20072;-77
2022/08/27 20:15:19;;;;;;;6.30;4.80;;;;;;;;;;6158020;23;20487;-79
2022/08/27 20:17:46;;;;;;;4.72;4.20;;;;;;;;;;6158175;23;20337;-78
2022/08/27 20:20:14;;;;;;;5.40;4.90;;;;;;;;;;6157712;23;20009;-80
2022/08/27 20:22:41;;;;;;;4.60;3.75;;;;;;;;;;6158175;23;20341;-81
2022/08/27 20:25:07;;;;;;;4.82;4.18;;;;;;;;;;6158091;23;20008;-79
2022/08/27 20:27:33;;;;;;;5.05;4.32;;;;;;;;;;6157608;23;20013;-78
2022/08/27 20:29:59;;;;;;;6.15;4.28;;;;;;;;;;6157870;23;20013;-80
2022/08/27 20:32:25;;;;;;;6.90;4.43;;;;;;;;;;6157697;23;20036;-83
2022/08/27 20:34:51;;;;;;;5.78;4.18;;;;;;;;;;6157990;23;20050;-78
2022/08/27 20:37:17;;;;;;;4.88;4.32;;;;;;;;;;6156158;23;20048;-80
2022/08/27 20:39:42;;;;;;;5.80;4.32;;;;;;;;;;6157717;23;20011;-81
2022/08/27 20:42:09;;;;;;;5.30;3.88;;;;;;;;;;6157773;23;20073;-80
2022/08/27 20:44:35;;;;;;;4.45;3.40;;;;;;;;;;6157790;23;20076;-78
2022/08/27 20:47:01;;;;;;;5.22;4.10;;;;;;;;;;6157654;23;20008;-80
2022/08/27 20:49:27;;;;;;;4.18;3.78;;;;;;;;;;6157350;23;19997;-81
2022/08/27 20:51:54;;;;;;;4.50;3.33;;;;;;;;;;6131520;23;20029;-83
2022/08/27 20:54:20;;;;;;;4.63;3.95;;;;;;;;;;6157733;23;20009;-81
2022/08/27 20:56:45;;;;;;;5.00;3.80;;;;;;;;;;6157885;23;20437;-77
2022/08/27 21:01:55;;;;;;;4.00;3.60;;;;;;;;;;6157407;23;20016;-78
2022/08/27 21:04:20;;;;;;;4.40;4.00;;;;;;;;;;6157289;23;20005;-81
2022/08/27 21:06:46;;;;;;;4.18;3.50;;;;;;;;;;6157360;23;20009;-78
2022/08/27 21:09:11;;;;;;;5.70;3.90;;;;;;;;;;6157466;23;20005;-78
2022/08/27 21:11:37;;;;;;;4.93;4.32;;;;;;;;;;6157000;23;20006;-79
2022/08/27 21:14:02;;;;;;;4.57;3.65;;;;;;;;;;6157203;23;20029;-81
2022/08/27 21:16:28;;;;;;;4.20;3.33;;;;;;;;;;6157262;23;20006;-78
2022/08/27 21:18:54;;;;;;;4.43;3.97;;;;;;;;;;6157147;23;20002;-79
2022/08/27 21:21:20;;;;;;;5.57;3.83;;;;;;;;;;6156909;23;20044;-79
2022/08/27 21:23:47;;;;;;;5.95;4.13;;;;;;;;;;6157222;23;20033;-76
2022/08/27 21:26:13;;;;;;;4.40;4.00;;;;;;;;;;6157311;23;20009;-79
